Time;durP1;ratioP1;P1;durP2;ratioP2;P2;SDS_P1;SDS_P2;PMS_P1;PMS_P2;Temp;Humidity;BMP_temperature;BMP_pressure;BME280_temperature;BME280_humidity;BME280_pressure;Samples;Min_cycle;Max_cycle;Signal;HPM_P1;HPM_P2
2021/03/31 00:01:14;;;;;;;17.23;14.32;;;3.20;96.90;;;;;;5108933;28;20032;-77
2021/03/31 00:03:40;;;;;;;17.40;12.38;;;3.20;96.80;;;;;;5104955;28;20024;-79
2021/03/31 00:06:05;;;;;;;17.05;12.55;;;3.20;96.80;;;;;;5111273;28;20075;-78
2021/03/31 00:08:42;;;;;;;18.60;13.80;;;3.20;96.90;;;;;;5109433;28;20048;-78
2021/03/31 00:11:18;;;;;;;18.13;13.57;;;3.20;96.90;;;;;;5088965;28;20395;-79
2021/03/31 00:13:44;;;;;;;20.38;13.85;;;3.20;96.80;;;;;;5108752;28;20060;-78
2021/03/31 00:16:18;;;;;;;21.45;14.65;;;3.20;96.90;;;;;;5097475;28;20031;-78
2021/03/31 00:18:44;;;;;;;17.90;13.98;;;3.20;97.00;;;;;;5093571;28;20024;-77
2021/03/31 00:21:22;;;;;;;20.00;14.80;;;3.20;97.10;;;;;;5093399;28;20442;-77
2021/03/31 00:23:51;;;;;;;18.27;14.48;;;3.20;97.10;;;;;;5093711;28;20020;-78
2021/03/31 00:26:32;;;;;;;19.00;15.70;;;3.30;97.20;;;;;;5093532;28;20032;-77
2021/03/31 00:29:01;;;;;;;16.98;13.90;;;3.30;97.10;;;;;;5091988;28;20024;-77
2021/03/31 00:31:27;;;;;;;19.80;15.73;;;3.30;97.00;;;;;;5093165;28;20418;-78
2021/03/31 00:33:58;;;;;;;18.63;14.52;;;3.30;97.00;;;;;;5093403;28;20020;-79
2021/03/31 00:36:45;;;;;;;18.80;14.10;;;3.30;97.00;;;;;;5094350;28;20107;-79
2021/03/31 00:39:16;;;;;;;16.42;13.32;;;3.30;97.00;;;;;;5093488;28;20024;-78
2021/03/31 00:41:42;;;;;;;22.10;14.57;;;3.30;97.10;;;;;;5092183;28;20024;-78
2021/03/31 00:44:19;;;;;;;20.63;15.38;;;3.30;97.10;;;;;;5091725;28;20546;-79
2021/03/31 00:46:45;;;;;;;18.35;14.52;;;3.40;97.20;;;;;;5092231;28;20028;-80
2021/03/31 00:49:20;;;;;;;19.50;14.57;;;3.40;97.20;;;;;;5092936;28;20024;-79
2021/03/31 00:51:57;;;;;;;21.52;15.35;;;3.40;97.20;;;;;;5092715;28;20020;-77
2021/03/31 00:54:35;;;;;;;19.70;14.02;;;3.50;97.30;;;;;;5093019;28;20424;-78
2021/03/31 00:57:24;;;;;;;18.05;13.65;;;3.50;97.20;;;;;;5091553;28;20032;-79
2021/03/31 00:59:53;;;;;;;17.50;13.40;;;3.50;97.50;;;;;;5092612;28;20020;-78
2021/03/31 01:02:27;;;;;;;18.17;15.30;;;3.50;97.30;;;;;;5093354;28;20111;-77
2021/03/31 01:04:56;;;;;;;16.30;12.43;;;3.60;97.40;;;;;;5092842;28;20095;-79
2021/03/31 01:07:21;;;;;;;17.98;13.25;;;3.60;97.30;;;;;;5091592;28;20055;-79
2021/03/31 01:09:53;;;;;;;20.08;15.75;;;3.60;97.30;;;;;;5092585;28;20400;-79
2021/03/31 01:12:31;;;;;;;18.23;13.75;;;3.60;97.40;;;;;;5092912;28;20016;-78
2021/03/31 01:15:17;;;;;;;18.48;13.63;;;3.70;97.40;;;;;;5091595;28;20071;-80
2021/03/31 01:18:09;;;;;;;16.87;12.77;;;3.70;97.30;;;;;;5087917;28;20019;-78
2021/03/31 01:20:42;;;;;;;20.42;15.90;;;3.70;97.20;;;;;;5092566;28;20032;-79
2021/03/31 01:23:16;;;;;;;20.33;15.25;;;3.70;97.20;;;;;;5092633;28;20106;-79
2021/03/31 01:26:06;;;;;;;19.83;14.30;;;3.70;97.30;;;;;;5091051;28;20028;-79
2021/03/31 01:28:49;;;;;;;17.45;13.45;;;3.80;97.30;;;;;;5092541;28;20024;-79
2021/03/31 01:31:31;;;;;;;13.77;11.95;;;3.80;97.20;;;;;;5092295;28;20024;-78
2021/03/31 01:34:24;;;;;;;15.40;11.57;;;3.80;97.20;;;;;;5091031;28;20028;-79
2021/03/31 01:36:53;;;;;;;18.23;13.43;;;3.80;97.20;;;;;;5091952;28;20024;-79
2021/03/31 01:39:28;;;;;;;23.13;14.20;;;3.90;97.20;;;;;;5091774;28;20388;-79
2021/03/31 01:41:59;;;;;;;16.20;13.25;;;3.90;97.20;;;;;;5092216;28;20035;-78
2021/03/31 01:44:26;;;;;;;17.73;14.98;;;3.90;97.10;;;;;;5092239;28;20170;-77
2021/03/31 01:46:59;;;;;;;16.20;14.50;;;3.90;97.20;;;;;;5092358;28;20126;-76
2021/03/31 01:49:27;;;;;;;14.48;12.55;;;3.90;97.20;;;;;;5091919;28;20086;-78
2021/03/31 01:51:56;;;;;;;17.05;13.82;;;3.90;97.00;;;;;;5091202;28;20088;-79
2021/03/31 01:54:22;;;;;;;17.88;14.68;;;3.90;97.20;;;;;;5092317;28;20091;-77
2021/03/31 01:56:50;;;;;;;16.17;12.95;;;3.90;97.20;;;;;;5092532;28;20483;-78
2021/03/31 01:59:27;;;;;;;16.50;13.40;;;4.00;97.20;;;;;;5095060;28;20106;-79
2021/03/31 02:01:55;;;;;;;16.15;13.52;;;4.00;97.20;;;;;;5082610;28;20073;-78
2021/03/31 02:04:21;;;;;;;;;;;4.00;97.10;;;;;;5097001;28;20384;-79
2021/03/31 02:06:48;;;;;;;12.15;10.88;;;4.00;97.00;;;;;;5096063;28;19904;-78
2021/03/31 02:09:18;;;;;;;18.70;12.73;;;4.00;97.00;;;;;;5097076;28;20125;-78
2021/03/31 02:11:59;;;;;;;15.55;12.40;;;3.90;97.10;;;;;;5096142;28;20016;-79
2021/03/31 02:14:25;;;;;;;14.07;12.50;;;4.00;97.20;;;;;;5096311;28;20032;-79
2021/03/31 02:17:07;;;;;;;15.05;11.85;;;3.90;97.20;;;;;;5094572;28;20094;-78
2021/03/31 02:19:42;;;;;;;13.77;11.52;;;4.00;97.20;;;;;;5095573;28;20111;-80
2021/03/31 02:22:19;;;;;;;14.02;11.30;;;4.00;97.20;;;;;;5095665;28;20028;-77
2021/03/31 02:24:46;;;;;;;12.95;11.63;;;3.90;97.30;;;;;;5095749;28;20062;-77
2021/03/31 02:27:28;;;;;;;13.67;11.60;;;4.00;97.30;;;;;;5095578;28;20020;-78
2021/03/31 02:29:54;;;;;;;14.32;11.90;;;4.00;97.40;;;;;;5095583;28;20285;-78
2021/03/31 02:32:22;;;;;;;14.55;11.27;;;4.00;97.30;;;;;;5095522;28;20484;-78
2021/03/31 02:34:52;;;;;;;15.57;11.90;;;4.00;97.20;;;;;;5095659;28;20031;-79
2021/03/31 02:37:22;;;;;;;14.70;11.82;;;4.00;97.20;;;;;;5095439;28;20376;-78
2021/03/31 02:39:56;;;;;;;14.38;11.40;;;4.10;97.20;;;;;;5095493;28;20048;-78
2021/03/31 02:42:25;;;;;;;14.73;11.73;;;4.10;97.10;;;;;;5095536;28;20028;-79
2021/03/31 02:44:56;;;;;;;14.40;12.05;;;4.10;97.20;;;;;;5095731;28;20016;-78
2021/03/31 02:47:28;;;;;;;16.10;12.07;;;4.10;97.10;;;;;;5094372;28;20457;-77
2021/03/31 02:49:58;;;;;;;13.15;11.38;;;4.20;97.10;;;;;;5097908;28;20039;-78
2021/03/31 02:52:28;;;;;;;13.07;11.73;;;4.10;97.00;;;;;;5097530;28;20020;-78
2021/03/31 02:55:01;;;;;;;15.48;11.60;;;4.10;97.10;;;;;;5095270;28;20032;-77
2021/03/31 02:57:34;;;;;;;11.55;10.20;;;4.10;97.10;;;;;;5095169;28;20020;-77
2021/03/31 03:00:03;;;;;;;15.07;11.95;;;4.10;97.10;;;;;;5095070;28;20362;-76
2021/03/31 03:02:36;;;;;;;13.55;11.13;;;4.10;97.20;;;;;;5095341;28;20043;-77
2021/03/31 03:05:04;;;;;;;14.10;10.88;;;4.20;97.30;;;;;;5094782;28;20028;-77
2021/03/31 03:07:30;;;;;;;14.40;12.07;;;4.20;97.30;;;;;;5095182;28;20487;-80
2021/03/31 03:10:03;;;;;;;17.35;13.02;;;4.20;97.20;;;;;;5093672;28;20032;-79
2021/03/31 03:12:32;;;;;;;14.68;13.02;;;4.20;97.30;;;;;;5094797;28;20489;-78
2021/03/31 03:14:58;;;;;;;16.40;12.25;;;4.20;97.30;;;;;;5095266;28;20041;-78
2021/03/31 03:17:24;;;;;;;15.20;12.13;;;4.20;97.30;;;;;;5095015;28;20070;-77
2021/03/31 03:20:03;;;;;;;15.27;11.85;;;4.20;97.20;;;;;;5094598;28;20020;-78
2021/03/31 03:22:30;;;;;;;15.13;12.63;;;4.30;97.20;;;;;;5094842;28;20020;-78
2021/03/31 03:24:58;;;;;;;19.52;12.55;;;4.30;97.10;;;;;;5094654;28;20058;-78
2021/03/31 03:27:26;;;;;;;14.00;12.13;;;4.30;97.30;;;;;;5093478;28;20051;-77
2021/03/31 03:30:01;;;;;;;16.08;12.75;;;4.30;97.20;;;;;;5094959;28;20040;-78
2021/03/31 03:32:28;;;;;;;15.80;12.82;;;4.40;97.10;;;;;;5079568;28;20527;-77
2021/03/31 03:34:55;;;;;;;16.65;13.25;;;4.40;97.10;;;;;;5095142;28;20028;-77
2021/03/31 03:37:25;;;;;;;14.63;13.03;;;4.40;97.10;;;;;;5099550;28;20047;-77
2021/03/31 03:40:00;;;;;;;16.65;13.07;;;4.40;97.10;;;;;;5094904;28;20073;-78
2021/03/31 03:42:26;;;;;;;14.93;12.10;;;4.40;97.10;;;;;;5094277;28;20020;-77
2021/03/31 03:44:52;;;;;;;14.82;12.77;;;4.40;97.00;;;;;;5094451;28;20028;-79
2021/03/31 03:47:21;;;;;;;15.43;13.13;;;4.40;97.00;;;;;;5094177;28;20388;-78
2021/03/31 03:49:46;;;;;;;17.17;13.80;;;4.40;96.90;;;;;;5094104;28;20085;-78
2021/03/31 03:52:16;;;;;;;19.17;14.73;;;4.40;96.80;;;;;;5094164;28;20028;-78
2021/03/31 03:54:52;;;;;;;15.48;13.27;;;4.40;97.00;;;;;;5093980;28;20062;-79
2021/03/31 03:57:54;;;;;;;16.92;12.77;;;4.40;97.10;;;;;;5094035;28;20012;-78
2021/03/31 04:00:24;;;;;;;16.15;12.98;;;4.50;97.00;;;;;;5074745;28;20028;-79
2021/03/31 04:02:52;;;;;;;16.92;12.48;;;4.40;96.90;;;;;;5088185;28;20035;-80
2021/03/31 04:05:18;;;;;;;17.17;14.13;;;4.50;97.00;;;;;;5092660;28;20115;-78
2021/03/31 04:07:44;;;;;;;14.73;13.15;;;4.50;97.00;;;;;;5093707;28;20064;-78
2021/03/31 04:10:10;;;;;;;13.95;12.02;;;4.50;96.90;;;;;;5093700;28;20512;-79
2021/03/31 04:12:43;;;;;;;14.95;13.00;;;4.50;96.90;;;;;;5093840;28;20093;-78
2021/03/31 04:15:11;;;;;;;14.23;12.15;;;4.50;96.90;;;;;;5093510;28;20021;-79
2021/03/31 04:17:39;;;;;;;15.00;13.23;;;4.50;97.00;;;;;;5092714;28;20372;-78
2021/03/31 04:20:08;;;;;;;;;;;4.50;96.90;;;;;;5094017;28;20073;-78
2021/03/31 04:22:34;;;;;;;16.17;11.95;;;4.50;96.80;;;;;;5093728;28;19904;-80
2021/03/31 04:25:08;;;;;;;14.20;12.10;;;4.50;97.00;;;;;;5097931;28;20076;-79
2021/03/31 04:27:39;;;;;;;15.40;12.82;;;4.50;97.10;;;;;;5075608;28;20508;-79
2021/03/31 04:30:10;;;;;;;18.73;12.85;;;4.50;97.00;;;;;;5078326;28;20047;-78
2021/03/31 04:32:39;;;;;;;14.95;11.43;;;4.50;97.10;;;;;;5111830;28;20468;-77
2021/03/31 04:35:10;;;;;;;18.98;13.15;;;4.60;97.10;;;;;;5109377;28;20019;-77
2021/03/31 04:37:37;;;;;;;18.40;13.02;;;4.60;97.10;;;;;;5111484;28;20015;-78
2021/03/31 04:40:04;;;;;;;16.92;13.95;;;4.60;97.10;;;;;;5102666;28;20024;-76
2021/03/31 04:42:30;;;;;;;17.05;13.05;;;4.70;97.10;;;;;;5110451;28;20024;-80
2021/03/31 04:44:56;;;;;;;14.25;12.75;;;4.80;97.00;;;;;;5110116;28;20106;-81
2021/03/31 04:47:38;;;;;;;17.42;13.90;;;4.80;96.90;;;;;;5108793;28;20020;-78
2021/03/31 04:50:09;;;;;;;16.73;12.95;;;4.80;97.00;;;;;;5080459;28;20039;-80
2021/03/31 04:52:47;;;;;;;15.77;12.98;;;4.80;96.90;;;;;;5094275;28;20112;-79
2021/03/31 04:55:12;;;;;;;15.65;12.55;;;4.80;96.90;;;;;;5088396;28;20070;-78
2021/03/31 04:57:39;;;;;;;15.98;12.60;;;4.80;96.80;;;;;;5094418;28;20028;-80
2021/03/31 05:00:06;;;;;;;14.57;12.02;;;4.80;96.80;;;;;;5092026;28;20503;-80
2021/03/31 05:02:33;;;;;;;14.27;12.48;;;4.80;96.70;;;;;;5093117;28;20055;-79
2021/03/31 05:04:59;;;;;;;16.00;13.43;;;4.80;96.70;;;;;;5091427;28;20028;-78
2021/03/31 05:07:29;;;;;;;14.38;12.88;;;4.80;96.80;;;;;;5091984;28;20042;-79
2021/03/31 05:09:54;;;;;;;15.13;13.32;;;4.80;96.90;;;;;;5094662;28;20062;-77
2021/03/31 05:12:24;;;;;;;17.15;12.35;;;4.80;96.90;;;;;;5090997;28;20024;-79
2021/03/31 05:14:50;;;;;;;16.90;12.93;;;4.90;97.00;;;;;;5073437;28;20043;-79
2021/03/31 05:17:15;;;;;;;18.27;14.43;;;4.90;96.90;;;;;;5091440;28;20023;-80
2021/03/31 05:19:41;;;;;;;19.92;12.70;;;4.90;96.90;;;;;;5091083;28;20035;-80
2021/03/31 05:22:07;;;;;;;16.30;13.18;;;4.90;96.80;;;;;;5101658;28;20077;-79
2021/03/31 05:24:32;;;;;;;14.48;12.60;;;4.90;96.90;;;;;;5098720;28;20066;-80
2021/03/31 05:26:58;;;;;;;17.17;13.90;;;5.00;96.80;;;;;;5096579;28;20021;-80
2021/03/31 05:29:24;;;;;;;14.40;11.93;;;5.00;96.80;;;;;;5096724;28;20073;-78
2021/03/31 05:31:50;;;;;;;15.75;13.38;;;5.10;96.80;;;;;;5098017;28;20020;-77
2021/03/31 05:34:16;;;;;;;15.68;12.52;;;5.10;96.80;;;;;;5096668;28;20031;-79
2021/03/31 05:36:41;;;;;;;16.85;12.90;;;5.10;96.70;;;;;;5096569;28;20035;-78
2021/03/31 05:39:07;;;;;;;16.77;12.50;;;5.20;96.60;;;;;;5103028;28;20020;-79
2021/03/31 05:41:39;;;;;;;15.88;12.05;;;5.10;96.60;;;;;;5088957;28;20028;-79
2021/03/31 05:44:05;;;;;;;16.35;12.75;;;5.10;96.60;;;;;;5086176;28;20015;-77
2021/03/31 05:46:33;;;;;;;16.63;13.52;;;5.10;96.50;;;;;;5095899;28;20039;-80
2021/03/31 05:48:59;;;;;;;17.42;13.77;;;5.20;96.60;;;;;;5095048;28;20032;-79
2021/03/31 05:51:26;;;;;;;17.08;12.95;;;5.20;96.60;;;;;;5090468;28;20051;-76
2021/03/31 05:53:52;;;;;;;15.00;12.32;;;5.30;96.40;;;;;;5091929;28;20027;-78
2021/03/31 05:56:21;;;;;;;14.32;12.02;;;5.30;96.30;;;;;;5090363;28;20375;-79
2021/03/31 05:58:49;;;;;;;15.50;12.95;;;5.30;96.40;;;;;;5082271;28;20024;-79
2021/03/31 06:01:17;;;;;;;13.52;11.25;;;5.30;96.30;;;;;;5093055;28;20028;-79
2021/03/31 06:03:44;;;;;;;14.00;11.38;;;5.30;96.50;;;;;;5092013;28;20020;-77
2021/03/31 06:06:10;;;;;;;13.23;10.77;;;5.30;96.50;;;;;;5094398;28;20068;-83
2021/03/31 06:08:41;;;;;;;14.70;11.60;;;5.30;96.50;;;;;;5091586;28;20383;-81
2021/03/31 06:11:11;;;;;;;14.85;11.57;;;5.40;96.50;;;;;;5092771;28;20115;-81
2021/03/31 06:13:56;;;;;;;14.90;12.30;;;5.50;96.30;;;;;;5094867;28;20020;-79
2021/03/31 06:16:37;;;;;;;15.68;11.10;;;5.60;96.10;;;;;;5093950;28;20100;-81
2021/03/31 06:19:20;;;;;;;12.77;10.23;;;5.70;95.90;;;;;;5094296;28;20024;-81
2021/03/31 06:22:11;;;;;;;14.25;12.48;;;5.70;95.60;;;;;;5093989;28;20391;-81
2021/03/31 06:24:44;;;;;;;12.68;11.07;;;5.70;95.50;;;;;;5092964;28;20020;-80
2021/03/31 06:27:11;;;;;;;13.55;10.55;;;5.80;95.30;;;;;;5093703;28;20016;-80
2021/03/31 06:30:02;;;;;;;17.60;10.13;;;5.90;95.30;;;;;;5092870;28;20385;-80
2021/03/31 06:32:36;;;;;;;12.00;10.75;;;5.90;95.10;;;;;;5093011;28;20444;-82
2021/03/31 06:35:06;;;;;;;12.40;11.00;;;6.00;95.10;;;;;;5092925;28;20369;-79
2021/03/31 06:37:42;;;;;;;12.90;11.20;;;6.00;95.00;;;;;;5093413;28;20028;-80
2021/03/31 06:40:25;;;;;;;12.35;11.05;;;6.00;94.90;;;;;;5091062;28;20028;-80
2021/03/31 06:42:51;;;;;;;12.68;10.15;;;6.00;94.70;;;;;;5091455;28;20131;-79
2021/03/31 06:45:49;;;;;;;11.57;10.40;;;6.00;94.50;;;;;;5093895;28;20528;-81
2021/03/31 06:48:15;;;;;;;11.63;9.88;;;6.00;94.60;;;;;;5084368;28;20050;-79
2021/03/31 06:50:44;;;;;;;12.85;10.63;;;6.10;94.90;;;;;;5095205;28;20036;-81
2021/03/31 06:53:12;;;;;;;12.98;10.50;;;6.20;94.90;;;;;;5095550;28;20019;-82
2021/03/31 06:55:39;;;;;;;17.05;10.73;;;6.20;94.70;;;;;;5095290;28;20032;-80
2021/03/31 06:58:10;;;;;;;11.55;10.15;;;6.20;94.70;;;;;;5095027;28;20095;-80
2021/03/31 07:00:38;;;;;;;13.88;11.32;;;6.10;94.90;;;;;;5095099;28;20073;-79
2021/03/31 07:03:13;;;;;;;14.30;11.32;;;6.20;95.00;;;;;;5094947;28;20016;-79
2021/03/31 07:05:40;;;;;;;12.20;10.70;;;6.30;95.10;;;;;;5093824;28;20484;-80
2021/03/31 07:08:08;;;;;;;11.73;9.73;;;6.40;94.70;;;;;;5096409;28;20016;-80
2021/03/31 07:11:03;;;;;;;10.77;9.15;;;6.40;94.30;;;;;;5107341;28;20075;-80
2021/03/31 07:13:34;;;;;;;10.80;8.75;;;6.50;94.20;;;;;;5077493;28;20066;-79
2021/03/31 07:16:04;;;;;;;14.90;11.38;;;6.40;94.20;;;;;;5094841;28;20048;-81
2021/03/31 07:18:31;;;;;;;11.88;9.63;;;6.30;94.30;;;;;;5094538;28;20081;-80
2021/03/31 07:20:57;;;;;;;;;;;6.30;94.30;;;;;;5094705;28;20055;-81
2021/03/31 07:23:25;;;;;;;11.65;9.45;;;6.30;94.40;;;;;;5094944;28;19911;-81
2021/03/31 07:25:55;;;;;;;;;;;6.30;94.60;;;;;;5093775;28;20080;-81
2021/03/31 07:28:24;;;;;;;9.60;8.63;;;6.30;94.40;;;;;;5094200;28;20364;-79
2021/03/31 07:30:51;;;;;;;9.98;8.98;;;6.20;94.70;;;;;;5093396;28;20126;-80
2021/03/31 07:33:23;;;;;;;12.13;9.32;;;6.20;94.80;;;;;;5094698;28;20112;-80
2021/03/31 07:36:10;;;;;;;12.43;9.00;;;6.30;94.90;;;;;;5094237;28;20181;-80
2021/03/31 07:38:36;;;;;;;11.43;9.88;;;6.40;94.90;;;;;;5093816;28;20052;-80
2021/03/31 07:45:00;;;;;;;11.57;8.65;;;6.50;94.60;;;;;;5072291;28;20024;-80
2021/03/31 07:47:31;;;;;;;12.95;9.27;;;6.50;94.60;;;;;;5071503;28;20024;-79
2021/03/31 07:50:13;;;;;;;10.75;7.78;;;6.50;94.60;;;;;;5071728;28;20059;-80
2021/03/31 07:53:03;;;;;;;10.65;7.50;;;6.60;94.50;;;;;;5053858;28;20186;-80
2021/03/31 07:55:46;;;;;;;13.30;8.18;;;6.50;94.40;;;;;;5051652;28;20513;-80
2021/03/31 07:58:14;;;;;;;9.80;7.45;;;6.50;94.50;;;;;;5071439;28;20033;-79
2021/03/31 08:00:58;;;;;;;10.55;7.90;;;6.50;94.60;;;;;;5071467;28;20046;-82
2021/03/31 08:03:28;;;;;;;8.75;7.30;;;6.60;94.50;;;;;;5071855;28;20028;-79
2021/03/31 08:06:05;;;;;;;8.20;7.28;;;6.70;94.70;;;;;;5071875;28;20028;-80
2021/03/31 08:08:36;;;;;;;9.10;7.22;;;6.80;94.40;;;;;;5064520;28;20044;-80
2021/03/31 08:11:42;;;;;;;10.35;7.45;;;6.80;94.30;;;;;;5051232;28;20095;-80
2021/03/31 08:14:14;;;;;;;9.02;6.60;;;6.80;94.10;;;;;;5071152;28;20020;-79
2021/03/31 08:17:14;;;;;;;9.45;7.63;;;6.80;94.20;;;;;;5072028;28;20040;-81
2021/03/31 08:19:46;;;;;;;7.63;6.82;;;6.90;94.10;;;;;;5090616;28;20112;-79
2021/03/31 08:25:59;;;;;;;8.10;7.18;;;6.90;93.80;;;;;;5049644;28;20115;-81
2021/03/31 08:28:36;;;;;;;8.13;7.05;;;7.00;93.80;;;;;;5050911;28;20406;-81
2021/03/31 08:31:25;;;;;;;7.07;6.20;;;7.00;93.60;;;;;;5051162;28;20132;-82
2021/03/31 08:33:53;;;;;;;7.45;6.47;;;7.00;93.50;;;;;;5050712;28;20024;-81
2021/03/31 08:36:23;;;;;;;8.27;7.40;;;7.10;93.40;;;;;;5050749;28;20367;-80
2021/03/31 08:38:54;;;;;;;8.05;7.20;;;7.20;93.30;;;;;;5050731;28;20474;-80
2021/03/31 08:41:25;;;;;;;9.95;7.15;;;7.30;93.10;;;;;;5045514;28;20418;-80
2021/03/31 08:44:09;;;;;;;10.27;7.03;;;7.30;93.00;;;;;;5051965;28;20465;-82
2021/03/31 08:47:23;;;;;;;9.40;7.55;;;7.30;92.80;;;;;;5021770;28;20030;-80
2021/03/31 08:50:43;;;;;;;10.35;7.82;;;7.40;93.00;;;;;;5031146;28;20045;-80
2021/03/31 08:53:13;;;;;;;9.50;7.95;;;7.40;92.80;;;;;;5012486;28;20167;-81
2021/03/31 08:55:50;;;;;;;8.05;7.28;;;7.50;92.70;;;;;;5050529;28;20033;-80
2021/03/31 08:58:16;;;;;;;9.55;8.40;;;7.60;92.60;;;;;;5051194;28;20092;-80
2021/03/31 09:00:51;;;;;;;9.57;8.50;;;7.60;92.60;;;;;;5050164;28;20477;-79
2021/03/31 09:03:18;;;;;;;9.10;8.18;;;7.70;92.50;;;;;;5095581;28;20059;-80
2021/03/31 09:05:58;;;;;;;8.73;7.47;;;7.60;92.40;;;;;;5103194;28;20024;-79
2021/03/31 09:08:25;;;;;;;10.80;8.32;;;7.60;92.50;;;;;;5091802;28;20051;-80
2021/03/31 09:11:04;;;;;;;10.32;8.27;;;7.60;92.30;;;;;;5093363;28;20115;-80
2021/03/31 09:13:36;;;;;;;8.38;6.97;;;7.70;92.30;;;;;;5092474;28;20016;-80
2021/03/31 09:16:13;;;;;;;8.20;7.25;;;7.60;92.00;;;;;;5092328;28;20107;-81
2021/03/31 09:18:40;;;;;;;8.32;7.30;;;7.50;92.10;;;;;;5092356;28;20492;-80
2021/03/31 09:21:06;;;;;;;9.45;8.55;;;7.60;92.20;;;;;;5092569;28;20024;-80
2021/03/31 09:23:32;;;;;;;8.98;8.07;;;7.70;92.20;;;;;;5092244;28;20028;-82
2021/03/31 09:26:03;;;;;;;11.38;8.68;;;7.70;92.00;;;;;;5092571;28;20024;-79
2021/03/31 09:28:31;;;;;;;17.35;10.27;;;7.70;92.10;;;;;;5092487;28;20443;-81
2021/03/31 09:31:09;;;;;;;9.52;8.15;;;7.60;92.30;;;;;;5092204;28;20158;-83
2021/03/31 09:33:44;;;;;;;11.65;8.68;;;7.60;92.30;;;;;;5092429;28;20031;-81
2021/03/31 09:36:15;;;;;;;11.07;8.10;;;7.60;92.70;;;;;;5092617;28;20115;-80
2021/03/31 09:38:41;;;;;;;20.33;15.15;;;7.70;92.70;;;;;;5092547;28;20133;-80
2021/03/31 09:41:08;;;;;;;10.45;8.02;;;7.80;92.40;;;;;;5092030;28;20020;-81
2021/03/31 09:43:37;;;;;;;9.82;7.85;;;7.90;92.10;;;;;;5092318;28;20020;-80
2021/03/31 09:46:03;;;;;;;9.30;7.38;;;8.00;92.10;;;;;;5079322;28;20480;-80
2021/03/31 09:48:29;;;;;;;15.70;9.40;;;8.00;91.60;;;;;;5091890;28;20028;-81
2021/03/31 09:51:01;;;;;;;12.40;10.82;;;8.00;91.50;;;;;;5092042;28;20032;-81
2021/03/31 09:54:06;;;;;;;;;;;;;;;;;;;;;
2021/03/31 09:57:14;;;;;;;14.75;10.40;;;8.20;91.50;;;;;;5091875;28;20024;-81
2021/03/31 09:59:41;;;;;;;13.35;10.15;;;8.10;91.20;;;;;;5091458;28;20081;-82
2021/03/31 10:02:12;;;;;;;13.25;10.38;;;8.10;91.30;;;;;;5090708;28;20400;-81
2021/03/31 10:04:39;;;;;;;16.33;9.93;;;8.10;91.40;;;;;;5090205;28;20059;-80
2021/03/31 10:07:26;;;;;;;13.13;10.45;;;8.20;91.10;;;;;;5092282;28;20024;-81
2021/03/31 10:09:52;;;;;;;;;;;8.20;91.00;;;;;;5090789;28;20048;-81
2021/03/31 10:12:36;;;;;;;11.90;10.15;;;8.30;91.00;;;;;;5092757;28;19919;-81
2021/03/31 10:15:14;;;;;;;14.45;11.38;;;8.30;91.00;;;;;;5090572;28;20472;-81
2021/03/31 10:17:47;;;;;;;15.05;12.30;;;8.20;90.80;;;;;;5093915;28;20028;-82
2021/03/31 10:20:15;;;;;;;14.73;11.40;;;8.20;90.80;;;;;;5095244;28;20043;-81
2021/03/31 10:22:52;;;;;;;14.27;11.73;;;8.20;90.80;;;;;;5095492;28;20043;-81
2021/03/31 10:25:31;;;;;;;13.80;11.95;;;8.20;90.90;;;;;;5096744;28;20031;-81
2021/03/31 10:28:01;;;;;;;14.35;12.48;;;8.10;90.80;;;;;;5095898;28;20447;-81
2021/03/31 10:30:31;;;;;;;15.13;12.93;;;8.00;90.90;;;;;;5094673;28;20028;-81
2021/03/31 10:33:01;;;;;;;17.45;13.82;;;8.00;91.00;;;;;;5093819;28;20024;-82
2021/03/31 10:35:54;;;;;;;15.40;12.68;;;8.10;91.10;;;;;;5095920;28;20082;-81
2021/03/31 10:39:09;;;;;;;15.45;12.05;;;8.10;91.00;;;;;;5094501;28;20434;-80
2021/03/31 10:47:49;;;;;;;16.20;13.00;;;8.00;91.20;;;;;;5090114;28;20062;-81
2021/03/31 10:50:23;;;;;;;16.63;12.43;;;8.00;91.10;;;;;;5095694;28;20047;-81
2021/03/31 10:52:52;;;;;;;17.75;14.60;;;7.90;91.10;;;;;;5108582;28;20024;-82
2021/03/31 10:55:28;;;;;;;16.05;11.75;;;7.90;91.40;;;;;;5094328;28;20058;-81
2021/03/31 10:58:12;;;;;;;16.70;13.48;;;7.90;91.30;;;;;;5094772;28;20119;-80
2021/03/31 11:00:49;;;;;;;17.90;13.43;;;7.80;91.30;;;;;;5094212;28;20028;-82
2021/03/31 11:03:19;;;;;;;15.40;11.70;;;7.70;91.60;;;;;;5093492;28;20362;-81
2021/03/31 11:05:45;;;;;;;19.35;15.25;;;7.70;91.60;;;;;;5093682;28;20508;-81
2021/03/31 11:08:10;;;;;;;16.02;13.60;;;7.70;91.70;;;;;;5094593;28;20028;-82
2021/03/31 11:10:36;;;;;;;20.63;15.07;;;7.70;91.70;;;;;;5094838;28;20493;-81
2021/03/31 11:13:02;;;;;;;17.65;13.98;;;7.70;91.80;;;;;;5109036;28;20110;-80
2021/03/31 11:15:30;;;;;;;20.15;14.35;;;7.80;91.80;;;;;;5092092;28;20028;-80
2021/03/31 11:18:05;;;;;;;23.95;15.48;;;7.90;91.60;;;;;;5095073;28;20028;-82
2021/03/31 11:26:01;;;;;;;16.45;12.50;;;8.00;91.30;;;;;;5094671;28;20031;-81
2021/03/31 11:28:27;;;;;;;18.95;15.27;;;7.90;91.30;;;;;;5095094;28;20028;-82
2021/03/31 11:30:54;;;;;;;16.88;14.52;;;8.00;91.50;;;;;;5093954;28;20496;-82
2021/03/31 11:33:23;;;;;;;18.23;14.48;;;8.00;91.40;;;;;;5107959;28;20019;-80
2021/03/31 11:35:55;;;;;;;22.02;15.98;;;8.10;91.30;;;;;;5094554;28;20031;-80
2021/03/31 11:38:22;;;;;;;19.33;14.57;;;8.00;91.30;;;;;;5094661;28;20111;-80
2021/03/31 11:40:49;;;;;;;16.77;13.50;;;8.00;91.30;;;;;;5093142;28;20020;-82
2021/03/31 11:43:16;;;;;;;21.17;14.88;;;7.90;91.30;;;;;;5094673;28;20032;-79
2021/03/31 11:45:48;;;;;;;18.23;14.23;;;7.80;91.60;;;;;;5094636;28;20023;-82
2021/03/31 11:48:19;;;;;;;19.98;14.90;;;7.90;91.60;;;;;;5094475;28;20028;-81
2021/03/31 11:50:45;;;;;;;20.90;15.43;;;7.90;91.60;;;;;;5094968;28;20043;-83
2021/03/31 11:53:12;;;;;;;19.25;15.48;;;7.90;91.50;;;;;;5094107;28;20480;-81
2021/03/31 11:55:38;;;;;;;16.27;14.07;;;8.00;91.50;;;;;;5094642;28;20158;-83
2021/03/31 11:58:04;;;;;;;18.10;13.50;;;8.10;91.40;;;;;;5094078;28;20016;-82
2021/03/31 12:00:30;;;;;;;15.95;14.23;;;8.00;91.20;;;;;;5094234;28;20028;-81
2021/03/31 12:02:56;;;;;;;20.30;15.07;;;8.00;91.30;;;;;;5092523;28;20028;-80
2021/03/31 12:05:22;;;;;;;18.88;14.30;;;7.90;91.40;;;;;;5093966;28;20388;-82
2021/03/31 12:07:48;;;;;;;19.40;14.38;;;8.00;91.50;;;;;;5094114;28;20020;-81
2021/03/31 12:10:15;;;;;;;22.52;13.77;;;7.90;91.40;;;;;;5094087;28;20067;-81
2021/03/31 12:12:41;;;;;;;18.27;14.25;;;7.90;91.50;;;;;;5094130;28;20024;-81
2021/03/31 12:15:10;;;;;;;19.27;14.00;;;7.90;91.50;;;;;;5093790;28;20059;-82
2021/03/31 12:17:37;;;;;;;20.13;13.73;;;7.90;91.50;;;;;;5093905;28;20020;-81
2021/03/31 12:20:05;;;;;;;20.83;16.10;;;8.00;91.40;;;;;;5093561;28;20032;-81
2021/03/31 12:22:31;;;;;;;18.67;14.05;;;8.00;91.30;;;;;;5092251;28;20055;-81
2021/03/31 12:24:57;;;;;;;20.77;15.40;;;8.10;91.40;;;;;;5093520;28;20438;-82
2021/03/31 12:27:23;;;;;;;17.13;13.70;;;8.10;91.20;;;;;;5093644;28;20024;-81
2021/03/31 12:29:50;;;;;;;17.25;13.85;;;8.10;91.20;;;;;;5093479;28;20103;-82
2021/03/31 12:32:16;;;;;;;18.27;14.52;;;8.00;91.10;;;;;;5094696;28;20016;-83
2021/03/31 12:34:44;;;;;;;17.70;14.30;;;8.00;91.40;;;;;;5093469;28;20039;-82
2021/03/31 12:37:11;;;;;;;;;;;7.90;91.30;;;;;;5094597;28;20051;-84
2021/03/31 12:39:36;;;;;;;15.27;12.43;;;7.90;91.20;;;;;;5093221;28;19955;-81
2021/03/31 12:42:03;;;;;;;18.92;13.35;;;7.90;91.50;;;;;;5093015;28;20487;-83
2021/03/31 12:44:29;;;;;;;14.93;11.95;;;8.00;91.50;;;;;;5094400;28;20018;-82
2021/03/31 12:46:55;;;;;;;22.08;14.20;;;8.10;91.30;;;;;;5093630;28;20028;-82
2021/03/31 12:49:21;;;;;;;13.57;11.30;;;8.10;91.20;;;;;;5092945;28;20103;-82
2021/03/31 12:51:51;;;;;;;14.25;11.07;;;8.20;91.10;;;;;;5091832;28;20023;-82
2021/03/31 12:57:02;;;;;;;12.02;10.55;;;8.10;90.90;;;;;;5093332;28;20495;-81
2021/03/31 12:59:54;;;;;;;13.27;11.80;;;8.10;91.00;;;;;;5092725;28;20538;-80
2021/03/31 13:02:22;;;;;;;16.20;12.52;;;8.10;91.00;;;;;;5090216;28;20059;-81
2021/03/31 13:04:48;;;;;;;;;;;8.10;91.00;;;;;;5093166;28;20023;-82
2021/03/31 13:07:14;;;;;;;15.43;10.98;;;8.20;91.00;;;;;;5092875;28;20272;-81
2021/03/31 13:09:40;;;;;;;23.98;11.25;;;8.20;90.90;;;;;;5091082;28;20092;-80
2021/03/31 13:12:16;;;;;;;12.80;10.50;;;8.30;90.80;;;;;;5093248;28;20050;-80
2021/03/31 13:17:20;;;;;;;14.35;11.55;;;8.10;90.80;;;;;;5080205;28;20071;-81
2021/03/31 13:22:57;;;;;;;16.30;12.30;;;8.10;91.00;;;;;;5081527;28;20027;-82
2021/03/31 13:35:22;;;;;;;14.30;11.88;;;8.20;90.60;;;;;;5092512;28;20074;-81
2021/03/31 13:38:01;;;;;;;19.38;14.18;;;8.20;91.00;;;;;;5092687;28;20012;-82
2021/03/31 13:40:27;;;;;;;15.90;12.40;;;8.20;90.80;;;;;;5092303;28;20078;-82
2021/03/31 13:42:54;;;;;;;17.10;12.98;;;8.20;90.50;;;;;;5091555;28;20024;-81
2021/03/31 13:45:19;;;;;;;18.07;13.17;;;8.20;90.70;;;;;;5093804;28;20024;-81